Latest Weather Observations for Dennes Point

IDT60901

Issued at 5:11 am EDT Thursday 19 January 2017 (issued every 10 minutes, with the page automatically refreshed every 10 minutes)

About weather observations | Map of Hobart area stations | Latest observations for Hobart area | Other Formats
Station Details ID: 094255 Name: DENNES POINT Lat: -43.06 Lon: 147.36 Height: 5.67 m
Data from the previous 72 hours. | See also: Recent months at Dennes Point
Date/Time
EDT
Temp
°C
App
Temp
°C
Dew
Point
°C
Rel
Hum
%
Delta-T
°C
Wind Press
QNH
hPa
Press
MSL
hPa
Rain since
9am
mm
Dir  Spd
km/h
Gust
km/h
Spd
kts
Gust
kts
19/05:00am 11.3 6.6 3.3 58 3.5 WSW 17 22 9 12 1016.5 1016.4 0.0
19/04:30am 10.8 7.1 2.6 57 3.5 SW 11 19 6 10 1016.3 1016.2 0.0
19/04:00am 11.9 7.2 3.2 55 3.8 WSW 17 22 9 12 1016.5 1016.4 0.0
19/03:30am 12.0 6.9 4.0 58 3.6 W 20 26 11 14 1016.5 1016.4 0.0
19/03:00am 12.1 6.7 4.6 60 3.4 W 22 28 12 15 1016.7 1016.6 0.0
19/02:30am 12.2 6.5 4.7 60 3.4 W 24 28 13 15 1016.9 1016.8 0.0
19/02:00am 12.1 7.3 4.6 60 3.4 W 19 24 10 13 1016.9 1016.8 0.0
19/01:30am 12.3 7.8 4.3 58 3.6 WSW 17 20 9 11 1016.9 1016.8 0.0
19/01:00am 12.2 8.1 4.4 59 3.5 WSW 15 19 8 10 1016.9 1016.8 0.0
19/12:30am 12.3 7.2 4.0 57 3.7 WSW 20 28 11 15 1016.8 1016.7 0.0
19/12:00am 12.7 7.3 4.7 58 3.7 WSW 22 28 12 15 1016.8 1016.7 0.0
 
Date/Time
EDT
Temp
°C
App
Temp
°C
Dew
Point
°C
Rel
Hum
%
Delta-T
°C
Wind Press
QNH
hPa
Press
MSL
hPa
Rain since
9am
mm
Dir  Spd
km/h
Gust
km/h
Spd
kts
Gust
kts
18/11:30pm 12.8 5.7 3.7 54 4.1 WSW 30 37 16 20 1016.5 1016.4 0.0
18/11:00pm 12.7 6.1 4.4 57 3.8 WSW 28 39 15 21 1016.6 1016.5 0.0
18/10:30pm 12.9 7.0 4.1 55 4.0 WSW 24 32 13 17 1016.5 1016.4 0.0
18/10:00pm 13.3 8.0 5.0 57 3.8 SW 22 33 12 18 1016.5 1016.4 0.0
18/09:30pm 13.4 8.3 5.8 60 3.6 SW 22 32 12 17 1016.1 1016.0 0.0
18/09:00pm 13.6 7.7 6.0 60 3.6 SW 26 37 14 20 1015.8 1015.7 0.0
18/08:30pm 14.1 7.2 4.4 52 4.5 WSW 30 39 16 21 1015.3 1015.2 0.0
18/08:00pm 14.6 6.7 4.3 50 4.7 WSW 35 48 19 26 1014.8 1014.7 0.0
18/07:30pm 14.8 6.8 3.9 48 5.0 SW 35 48 19 26 1014.4 1014.3 0.0
18/07:00pm 16.4 9.1 4.4 45 5.6 WSW 32 44 17 24 1013.9 1013.8 0.0
18/06:30pm 17.5 11.6 4.1 41 6.3 SW 24 35 13 19 1013.4 1013.3 0.0
18/06:00pm 17.8 11.5 4.0 40 6.5 SW 26 44 14 24 1012.7 1012.6 0.0
18/05:30pm 18.0 11.2 3.1 37 6.9 SW 28 43 15 23 1012.2 1012.1 0.0
18/05:00pm 17.8 10.1 3.3 38 6.7 WSW 33 44 18 24 1011.9 1011.8 0.0
18/04:35pm 18.1 11.0 3.6 38 6.8 SW 30 48 16 26 1011.7 1011.6 0.0
18/04:30pm 18.3 11.1 4.8 41 6.5 SW 32 48 17 26 1011.7 1011.6 0.0
18/04:00pm 17.6 8.7 2.8 37 6.8 WSW 39 57 21 31 1011.2 1011.1 0.0
18/03:30pm 18.1 8.8 3.2 37 6.9 SW 41 61 22 33 1010.6 1010.5 0.0
18/03:00pm 18.1 9.1 4.3 40 6.6 WSW 41 65 22 35 1010.3 1010.2 0.0
18/02:31pm 17.8 8.7 5.7 45 5.9 WSW 43 59 23 32 1010.1 1010.0 0.0
18/02:30pm 17.5 8.3 5.4 45 5.8 WSW 43 59 23 32 1010.1 1010.0 0.0
18/02:00pm 17.3 7.5 7.1 51 5.1 WSW 48 69 26 37 1009.9 1009.8 0.0
18/01:30pm 17.2 8.4 3.5 40 6.3 WSW 39 63 21 34 1009.6 1009.5 0.0
18/01:00pm 17.7 7.9 3.6 39 6.6 WSW 44 65 24 35 1009.2 1009.1 0.0
18/12:30pm 17.3 7.4 2.5 37 6.7 WSW 44 59 24 32 1009.0 1008.9 0.0
18/12:12pm 17.0 8.4 4.7 44 5.8 WSW 39 57 21 31 1008.8 1008.7 0.0
18/12:00pm 16.5 7.1 4.2 44 5.8 WSW 43 57 23 31 1008.5 1008.4 0.0
18/11:33am 16.8 6.3 3.8 42 6.0 WSW 48 69 26 37 1008.0 1007.9 0.0
18/11:30am 16.8 6.3 3.8 42 6.0 WSW 48 65 26 35 1008.0 1007.9 0.0
18/11:00am 16.0 5.8 3.4 43 5.8 WSW 46 65 25 35 1007.5 1007.4 0.0
18/10:30am 16.1 8.3 5.1 48 5.2 SW 35 57 19 31 1007.2 1007.1 0.0
18/10:01am 15.6 8.5 5.5 51 4.8 WSW 32 59 17 32 1006.6 1006.5 0.0
18/10:00am 15.8 9.3 6.5 54 4.5 WSW 30 46 16 25 1006.7 1006.6 0.0
18/09:30am 12.6 5.4 7.7 72 2.4 WSW 35 50 19 27 1006.3 1006.2 0.0
18/09:00am 14.7 7.4 7.0 60 3.8 WSW 35 52 19 28 1005.5 1005.4 0.0
18/08:30am 14.2 6.4 5.0 54 4.3 WSW 35 50 19 27 1005.1 1005.0 0.0
18/08:00am 14.3 8.5 6.2 58 3.9 WSW 26 39 14 21 1004.7 1004.6 0.0
18/07:30am 13.7 6.9 5.1 56 4.0 WSW 30 39 16 21 1004.3 1004.2 0.0
18/07:00am 13.9 8.7 5.3 56 4.0 WSW 22 35 12 19 1004.0 1003.9 0.0
18/06:30am 12.8 10.3 4.5 57 3.8 SSW 7 17 4 9 1003.5 1003.4 0.0
18/06:00am 13.3 9.1 5.5 59 3.7 WSW 17 26 9 14 1002.9 1002.8 0.0
18/05:30am 13.9 9.4 6.3 60 3.6 WSW 19 30 10 16 1002.2 1002.1 0.0
18/05:00am 13.9 7.4 6.7 62 3.5 W 30 41 16 22 1001.8 1001.8 0.0
18/04:30am 14.4 8.4 7.0 61 3.6 W 28 54 15 29 1001.4 1001.4 0.0
18/04:00am 15.0 9.2 6.3 56 4.2 W 26 39 14 21 1000.8 1000.8 0.0
18/03:30am 14.8 10.5 5.1 52 4.6 W 17 28 9 15 1000.6 1000.6 0.0
18/03:00am 14.9 9.4 5.7 54 4.4 W 24 32 13 17 1001.3 1001.3 0.0
18/02:30am 15.0 8.8 6.3 56 4.2 W 28 39 15 21 1001.7 1001.7 0.0
18/02:00am 15.3 9.1 6.1 54 4.5 W 28 39 15 21 1001.8 1001.8 0.0
18/01:30am 15.5 9.5 7.0 57 4.2 WSW 28 46 15 25 1002.1 1002.0 0.0
18/01:00am 16.3 10.8 9.3 63 3.6 WSW 28 39 15 21 1001.7 1001.7 0.0
18/12:30am 16.9 13.9 10.5 66 3.4 WSW 17 24 9 13 1001.7 1001.7 0.0
18/12:00am 17.3 14.7 10.7 65 3.6 SW 15 20 8 11 1001.8 1001.8 0.0
 
Date/Time
EDT
Temp
°C
App
Temp
°C
Dew
Point
°C
Rel
Hum
%
Delta-T
°C
Wind Press
QNH
hPa
Press
MSL
hPa
Rain since
9am
mm
Dir  Spd
km/h
Gust
km/h
Spd
kts
Gust
kts
17/11:30pm 16.8 16.7 12.1 74 2.6 SW 4 6 2 3 1002.3 1002.2 0.0
17/11:00pm 16.3 16.2 12.1 76 2.3 SSW 4 6 2 3 1002.1 1002.0 0.0
17/10:30pm 16.4 16.9 12.9 80 1.9 SW 2 7 1 4 1002.3 1002.2 0.0
17/10:00pm 16.3 17.1 12.7 79 2.0 CALM 0 2 0 1 1002.4 1002.3 0.0
17/09:30pm 17.0 18.0 13.3 79 2.1 CALM 0 2 0 1 1002.4 1002.3 0.0
17/09:00pm 17.3 17.5 13.0 76 2.4 ENE 4 6 2 3 1002.4 1002.3 0.0
17/08:30pm 17.2 17.4 12.9 76 2.4 NE 4 6 2 3 1002.8 1002.7 0.0
17/08:00pm 17.8 18.6 12.5 71 3.0 CALM 0 4 0 2 1002.5 1002.4 0.0
17/07:30pm 18.0 17.9 12.2 69 3.2 ESE 4 6 2 3 1002.3 1002.2 0.0
17/07:00pm 17.9 17.3 12.4 70 3.1 ESE 7 9 4 5 1002.3 1002.2 0.0
17/06:30pm 17.9 16.8 12.1 69 3.2 ESE 9 13 5 7 1002.1 1002.0 0.0
17/06:00pm 18.5 17.8 12.0 66 3.6 ESE 7 9 4 5 1002.3 1002.2 0.0
17/05:30pm 18.1 16.8 12.5 70 3.1 ESE 11 15 6 8 1002.4 1002.3 0.0
17/05:00pm 18.0 15.4 13.3 74 2.7 E 19 24 10 13 1002.6 1002.5 0.0
17/04:30pm 17.8 15.0 13.1 74 2.6 ESE 20 24 11 13 1002.3 1002.2 0.0
17/04:00pm 17.8 14.7 12.3 70 3.1 ESE 20 28 11 15 1002.4 1002.3 0.0
17/03:30pm 18.2 15.2 12.0 67 3.4 ESE 19 28 10 15 1002.6 1002.5 0.0
17/03:00pm 19.1 16.9 12.1 64 3.9 ESE 15 20 8 11 1002.5 1002.4 0.0
17/02:30pm 18.9 15.8 11.7 63 4.0 ESE 19 24 10 13 1002.7 1002.6 0.0
17/02:00pm 18.6 15.6 10.7 60 4.3 ESE 17 20 9 11 1002.8 1002.7 0.0
17/01:30pm 19.3 16.3 12.1 63 4.0 ESE 19 24 10 13 1002.9 1002.8 0.0
17/01:00pm 20.1 17.0 11.6 58 4.7 ESE 19 24 10 13 1003.1 1003.0 0.0
17/12:30pm 21.6 18.3 11.0 51 5.8 ESE 19 24 10 13 1003.2 1003.1 0.0
17/12:00pm 21.3 20.5 14.0 63 4.3 ESE 11 15 6 8 1003.5 1003.4 0.0
17/11:30am 19.9 18.9 12.4 62 4.2 ENE 9 15 5 8 1003.8 1003.7 0.0
17/11:00am 20.0 19.4 12.3 61 4.3 E 7 11 4 6 1004.0 1003.9 0.0
17/10:30am 19.7 19.0 12.0 61 4.3 ENE 7 13 4 7 1004.3 1004.2 0.0
17/10:00am 19.7 19.0 11.5 59 4.5 NE 6 9 3 5 1004.7 1004.6 0.0
17/09:30am 18.2 17.5 11.3 64 3.8 N 6 7 3 4 1005.2 1005.1 0.0
17/09:00am 17.2 15.6 11.5 69 3.1 N 11 13 6 7 1005.3 1005.2 0.0
17/08:30am 16.4 13.6 11.3 72 2.7 NNW 17 19 9 10 1005.7 1005.6 0.0
17/08:00am 17.7 14.7 9.3 58 4.4 WNW 15 20 8 11 1005.5 1005.4 0.0
17/07:30am 15.4 14.5 9.3 67 3.1 SSW 4 9 2 5 1005.6 1005.5 0.0
17/07:00am 13.6 11.8 9.6 77 2.1 SSW 9 11 5 6 1005.1 1005.0 0.0
17/06:30am 12.9 11.1 9.5 80 1.7 SSW 9 13 5 7 1005.0 1004.9 0.0
17/06:00am 12.3 10.2 8.2 76 2.0 SW 9 13 5 7 1004.4 1004.3 0.0
17/05:30am 12.1 9.3 8.6 79 1.7 SSW 13 15 7 8 1004.2 1004.1 0.0
17/05:00am 12.2 10.4 9.4 83 1.4 SSW 9 11 5 6 1003.8 1003.7 0.0
17/04:30am 12.9 11.0 9.0 77 2.0 SW 9 13 5 7 1003.6 1003.5 0.0
17/04:00am 13.7 11.2 8.1 69 2.8 SSW 11 15 6 8 1003.5 1003.4 0.0
17/03:30am 14.2 11.4 8.6 69 2.8 SSW 13 19 7 10 1003.7 1003.6 0.0
17/03:00am 14.4 12.8 7.9 65 3.2 S 6 9 3 5 1003.8 1003.7 0.0
17/02:30am 15.4 14.2 7.9 61 3.8 WNW 4 7 2 4 1003.8 1003.7 0.0
17/02:00am 14.4 13.1 7.5 63 3.4 WSW 4 9 2 5 1003.9 1003.8 0.0
17/01:30am 15.2 13.6 8.2 63 3.5 WSW 6 9 3 5 1004.3 1004.2 0.0
17/01:00am 15.8 14.9 10.6 71 2.8 NE 6 7 3 4 1004.5 1004.4 0.0
17/12:30am 15.9 14.4 8.6 62 3.7 NW 6 11 3 6 1004.9 1004.8 0.0
17/12:00am 17.0 14.1 9.7 62 3.8 WNW 15 20 8 11 1005.3 1005.2 0.0
 
Date/Time
EDT
Temp
°C
App
Temp
°C
Dew
Point
°C
Rel
Hum
%
Delta-T
°C
Wind Press
QNH
hPa
Press
MSL
hPa
Rain since
9am
mm
Dir  Spd
km/h
Gust
km/h
Spd
kts
Gust
kts
16/11:30pm 17.4 13.7 9.3 59 4.2 WNW 19 22 10 12 1005.5 1005.4 0.0
16/11:00pm 16.2 13.2 10.5 69 3.0 W 17 22 9 12 1005.6 1005.5 0.0
16/10:30pm 15.2 13.6 11.4 78 2.0 WSW 11 17 6 9 1006.0 1005.9 0.0
16/10:00pm 14.3 13.8 10.9 80 1.8 WSW 4 9 2 5 1006.2 1006.1 0.0
16/09:30pm 14.7 14.0 11.3 80 1.8 W 6 7 3 4 1006.3 1006.2 0.0
16/09:00pm 15.8 15.5 11.6 76 2.3 SSW 4 9 2 5 1006.2 1006.1 0.0
16/08:30pm 17.2 16.6 11.7 70 3.0 SW 6 7 3 4 1006.2 1006.1 0.0
16/08:00pm 18.5 17.7 11.8 65 3.7 WSW 7 9 4 5 1006.1 1006.0 0.0
16/07:30pm 19.0 18.9 12.0 64 3.9 WSW 4 7 2 4 1006.1 1006.0 0.0
16/07:00pm 19.0 17.3 12.3 65 3.7 SW 13 17 7 9 1006.2 1006.1 0.0
16/06:30pm 19.9 19.4 12.7 63 4.1 WSW 7 15 4 8 1006.3 1006.2 0.0
16/06:00pm 19.5 17.7 11.0 58 4.6 S 11 19 6 10 1006.6 1006.5 0.0
16/05:30pm 18.6 16.0 12.1 66 3.6 SE 17 22 9 12 1006.8 1006.7 0.0
16/05:00pm 18.0 14.7 12.7 71 3.0 ESE 22 30 12 16 1007.1 1007.0 0.0
16/04:30pm 18.2 14.3 12.0 67 3.4 ESE 24 33 13 18 1007.3 1007.2 0.0
16/04:00pm 21.1 19.8 13.8 63 4.2 E 13 17 7 9 1007.6 1007.5 0.0
16/03:30pm 21.2 18.2 10.7 51 5.7 ESE 17 19 9 10 1007.8 1007.7 0.0
16/03:00pm 20.6 18.5 11.2 55 5.2 E 13 17 7 9 1008.3 1008.2 0.0
16/02:30pm 20.2 17.5 11.7 58 4.7 E 17 20 9 11 1008.6 1008.5 0.0
16/02:00pm 19.5 15.9 10.5 56 4.9 ESE 20 22 11 12 1009.0 1008.9 0.0
16/01:30pm 19.4 16.0 10.7 57 4.7 ESE 19 24 10 13 1009.4 1009.3 0.0
16/01:00pm 20.1 18.8 9.9 52 5.5 E 7 11 4 6 1009.6 1009.5 0.0
16/12:30pm 20.1 18.6 9.1 49 5.8 ENE 7 9 4 5 1010.0 1009.9 0.0
16/12:00pm 19.9 18.2 10.0 53 5.3 ENE 9 11 5 6 1010.1 1010.0 0.0
16/11:30am 19.7 17.6 9.9 53 5.2 NE 11 13 6 7 1010.3 1010.2 0.0
16/11:00am 19.0 17.4 8.6 51 5.4 NE 7 11 4 6 1010.6 1010.5 0.0
16/10:30am 18.2 16.2 8.7 54 4.9 NNW 9 19 5 10 1010.8 1010.7 0.0
16/10:00am 18.1 15.6 8.1 52 5.1 WSW 11 17 6 9 1010.9 1010.8 0.0
16/09:30am 18.2 15.2 7.9 51 5.3 WSW 13 17 7 9 1011.0 1010.9 0.0
16/09:00am 17.6 15.7 7.6 52 5.1 WSW 7 15 4 8 1010.9 1010.8 0.0
16/08:30am 16.9 15.3 8.1 56 4.5 NNE 6 9 3 5 1011.0 1010.9 0.0
16/08:00am 16.1 15.0 7.1 55 4.5 NW 2 6 1 3 1010.9 1010.8 0.0
16/07:30am 16.2 14.5 7.7 57 4.3 WNW 6 7 3 4 1010.7 1010.6 0.0
16/07:00am 14.6 11.2 7.6 63 3.5 W 15 19 8 10 1010.5 1010.4 0.0
16/06:30am 14.0 10.3 8.0 67 3.0 WSW 17 20 9 11 1010.1 1010.0 0.0
16/06:00am 14.3 10.1 7.4 63 3.4 SW 19 33 10 18 1010.2 1010.1 0.0
16/05:30am 14.5 11.5 7.5 63 3.5 SSW 13 20 7 11 1010.1 1010.0 0.0

Latest Capital City Observations: Canberra | Sydney | Melbourne | Brisbane | Adelaide | Perth | Hobart | Darwin

Other Formats:

Comma delimited format used in spreadsheet applications
http://www.bom.gov.au/fwo/IDT60901/IDT60901.94988.axf

JavaScript Object Notation format (JSON) in row-major order
http://www.bom.gov.au/fwo/IDT60901/IDT60901.94988.json